Time;durP1;ratioP1;P1;durP2;ratioP2;P2;SDS_P1;SDS_P2;PMS_P1;PMS_P2;Temp;Humidity;BMP_temperature;BMP_pressure;BME280_temperature;BME280_humidity;BME280_pressure;Samples;Min_cycle;Max_cycle;Signal;HPM_P1;HPM_P2
2023/06/25 00:01:22;;;;;;;0.50;0.40;;;;;;;20.86;100.00;95315.31;5072090;28;20476;-59
2023/06/25 00:03:51;;;;;;;1.47;0.67;;;;;;;20.96;100.00;95324.84;5071237;28;20437;-58
2023/06/25 00:06:21;;;;;;;0.60;0.50;;;;;;;21.01;100.00;95303.09;5070743;28;20488;-59
2023/06/25 00:08:50;;;;;;;0.40;0.30;;;;;;;20.93;100.00;95301.28;5071587;28;20502;-58
2023/06/25 00:11:18;;;;;;;0.40;0.30;;;;;;;20.97;100.00;95321.06;5071499;28;20504;-59
2023/06/25 00:13:48;;;;;;;0.50;0.40;;;;;;;21.15;100.00;95314.34;5070965;28;20553;-59
2023/06/25 00:16:17;;;;;;;0.50;0.30;;;;;;;21.10;100.00;95319.97;5071563;28;20475;-59
2023/06/25 00:18:47;;;;;;;0.70;0.60;;;;;;;20.57;100.00;95320.03;5070877;28;20434;-58
2023/06/25 00:21:15;;;;;;;0.73;0.73;;;;;;;20.52;100.00;95326.41;5071805;28;20464;-59
2023/06/25 00:23:43;;;;;;;0.40;0.30;;;;;;;20.80;100.00;95324.72;5071218;28;20930;-60
2023/06/25 00:26:13;;;;;;;0.70;0.67;;;;;;;20.96;100.00;95322.16;5071327;28;20853;-60
2023/06/25 00:28:41;;;;;;;0.50;0.33;;;;;;;20.92;100.00;95309.69;5071206;28;20491;-60
2023/06/25 00:31:12;;;;;;;1.00;0.70;;;;;;;20.90;100.00;95313.50;5071253;28;20499;-59
2023/06/25 00:33:42;;;;;;;0.53;0.50;;;;;;;20.96;100.00;95311.38;5071295;28;20523;-59
2023/06/25 00:36:11;;;;;;;2.10;0.30;;;;;;;20.90;100.00;95291.94;5071117;28;20525;-59
2023/06/25 00:38:42;;;;;;;1.00;0.57;;;;;;;20.40;100.00;95314.81;5071355;28;20437;-60
2023/06/25 00:41:11;;;;;;;0.40;0.30;;;;;;;20.16;100.00;95316.25;5070568;28;20449;-59
2023/06/25 00:43:42;;;;;;;0.40;0.30;;;;;;;20.11;100.00;95316.44;5071716;28;20460;-60
2023/06/25 00:46:15;;;;;;;0.40;0.30;;;;;;;20.37;100.00;95299.31;5070957;28;20485;-60
2023/06/25 00:48:47;;;;;;;0.50;0.40;;;;;;;20.48;100.00;95300.50;5071655;28;20511;-59
2023/06/25 00:51:17;;;;;;;2.00;0.40;;;;;;;20.37;100.00;95304.69;5071028;28;20516;-59
2023/06/25 00:53:45;;;;;;;0.60;0.37;;;;;;;20.38;100.00;95290.13;5070794;28;20437;-59
2023/06/25 00:56:15;;;;;;;0.60;0.60;;;;;;;20.49;100.00;95302.84;5070688;28;20506;-59
2023/06/25 00:58:43;;;;;;;0.53;0.40;;;;;;;20.67;100.00;95290.78;5070835;28;20437;-59
2023/06/25 01:01:21;;;;;;;0.50;0.40;;;;;;;20.68;100.00;95292.38;5070487;28;20843;-60
2023/06/25 01:04:00;;;;;;;0.50;0.50;;;;;;;20.68;100.00;95283.50;5070725;28;20793;-58
2023/06/25 01:06:33;;;;;;;0.50;0.43;;;;;;;20.77;100.00;95289.59;5070716;28;20465;-59
2023/06/25 01:09:02;;;;;;;0.60;0.50;;;;;;;20.23;100.00;95283.47;5070438;28;21044;-58
2023/06/25 01:11:31;;;;;;;0.50;0.30;;;;;;;20.45;100.00;95285.00;5071044;28;20592;-59
2023/06/25 01:13:59;;;;;;;0.60;0.50;;;;;;;20.42;100.00;95267.59;5070824;28;20438;-58
2023/06/25 01:16:29;;;;;;;1.30;1.20;;;;;;;20.63;100.00;95284.50;5070871;28;20442;-59
2023/06/25 01:19:00;;;;;;;0.50;0.40;;;;;;;20.52;100.00;95290.63;5074025;28;20441;-59
2023/06/25 01:21:33;;;;;;;0.50;0.37;;;;;;;20.37;100.00;95296.63;5074685;28;20526;-59
2023/06/25 01:24:03;;;;;;;0.53;0.40;;;;;;;19.80;100.00;95291.88;5068038;28;21013;-59
2023/06/25 01:26:31;;;;;;;1.10;0.83;;;;;;;19.72;100.00;95302.66;5068129;28;20504;-59
2023/06/25 01:28:59;;;;;;;0.50;0.30;;;;;;;20.10;100.00;95289.88;5075015;28;20442;-59
2023/06/25 01:31:30;;;;;;;0.80;0.80;;;;;;;20.16;100.00;95286.66;5074212;28;20810;-59
2023/06/25 01:34:00;;;;;;;1.50;0.50;;;;;;;20.37;100.00;95281.28;5074949;28;20473;-59
2023/06/25 01:36:29;;;;;;;0.83;0.30;;;;;;;20.43;100.00;95287.25;5074299;28;20523;-59
2023/06/25 01:38:57;;;;;;;0.70;0.70;;;;;;;20.50;100.00;95288.28;5074349;28;20449;-59
2023/06/25 01:41:27;;;;;;;2.50;1.07;;;;;;;20.40;100.00;95286.00;5074540;28;20512;-59
2023/06/25 01:43:55;;;;;;;0.60;0.60;;;;;;;20.48;100.00;95287.81;5074568;28;20498;-59
2023/06/25 01:46:23;;;;;;;0.40;0.30;;;;;;;20.02;100.00;95269.22;5074181;28;20440;-60
2023/06/25 01:48:52;;;;;;;1.57;0.57;;;;;;;19.88;100.00;95279.47;5074330;28;20839;-60
2023/06/25 01:51:20;;;;;;;0.80;0.80;;;;;;;20.22;100.00;95282.66;5074118;28;20932;-60
2023/06/25 01:53:48;;;;;;;0.93;0.40;;;;;;;20.27;100.00;95290.53;5074458;28;20446;-60
2023/06/25 01:56:17;;;;;;;0.50;0.30;;;;;;;20.40;100.00;95290.59;5073960;28;20433;-60
2023/06/25 01:58:46;;;;;;;0.50;0.40;;;;;;;20.34;100.00;95290.00;5074308;28;20437;-60
2023/06/25 02:01:15;;;;;;;0.50;0.30;;;;;;;20.35;100.00;95294.28;5074004;28;20490;-60
2023/06/25 02:03:43;;;;;;;0.50;0.30;;;;;;;20.36;100.00;95292.38;5074028;28;20913;-58
2023/06/25 02:06:12;;;;;;;0.40;0.30;;;;;;;20.31;100.00;95289.91;5074466;28;20441;-60
2023/06/25 02:08:40;;;;;;;0.77;0.70;;;;;;;20.26;100.00;95296.28;5073724;28;20988;-60
2023/06/25 02:11:08;;;;;;;0.40;0.30;;;;;;;20.07;100.00;95255.56;5072808;28;20480;-60
2023/06/25 02:13:37;;;;;;;0.40;0.30;;;;;;;20.37;100.00;95310.09;5072134;28;20468;-61
2023/06/25 02:16:07;;;;;;;1.80;0.43;;;;;;;20.34;100.00;95310.78;5072929;28;20472;-60
2023/06/25 02:18:36;;;;;;;0.60;0.50;;;;;;;20.36;100.00;95313.91;5071882;28;20862;-60
2023/06/25 02:21:05;;;;;;;0.40;0.33;;;;;;;20.32;100.00;95308.38;5072882;28;20473;-61
2023/06/25 02:23:33;;;;;;;7.50;0.40;;;;;;;20.06;100.00;95313.97;5072455;28;20491;-60
2023/06/25 02:26:02;;;;;;;0.70;0.70;;;;;;;20.11;100.00;95316.44;5072453;28;20961;-61
2023/06/25 02:28:30;;;;;;;0.90;0.90;;;;;;;20.06;100.00;95313.19;5071693;28;20843;-61
2023/06/25 02:30:58;;;;;;;0.60;0.40;;;;;;;20.04;100.00;95316.19;5072659;28;20434;-61
2023/06/25 02:33:28;;;;;;;1.33;0.70;;;;;;;19.72;100.00;95311.53;5072608;28;20433;-61
2023/06/25 02:35:57;;;;;;;0.40;0.30;;;;;;;19.94;100.00;95321.97;5072796;28;20477;-61
2023/06/25 02:38:25;;;;;;;0.70;0.40;;;;;;;19.90;100.00;95312.19;5071866;28;20934;-61
2023/06/25 02:40:53;;;;;;;2.93;0.50;;;;;;;19.54;100.00;95312.75;5072633;28;20992;-62
2023/06/25 02:43:22;;;;;;;0.60;0.60;;;;;;;19.34;100.00;95308.88;5072027;28;20441;-62
2023/06/25 02:45:50;;;;;;;0.50;0.30;;;;;;;19.12;100.00;95306.47;5072113;28;20965;-61
2023/06/25 02:48:18;;;;;;;0.83;0.70;;;;;;;19.02;100.00;95310.28;5072128;28;20530;-62
2023/06/25 02:50:48;;;;;;;2.00;0.87;;;;;;;19.44;100.00;95305.84;5072509;28;20438;-61
2023/06/25 02:53:16;;;;;;;0.73;0.50;;;;;;;19.73;100.00;95298.88;5072232;28;20445;-62
2023/06/25 02:55:45;;;;;;;0.57;0.50;;;;;;;19.84;100.00;95306.22;5071574;28;20440;-61
2023/06/25 02:58:13;;;;;;;0.60;0.40;;;;;;;19.74;100.00;95303.13;5072081;28;20954;-62
2023/06/25 03:00:42;;;;;;;0.50;0.40;;;;;;;19.78;100.00;95302.16;5071929;28;20510;-62
2023/06/25 03:03:10;;;;;;;0.70;0.40;;;;;;;19.75;100.00;95305.50;5072388;28;20441;-62
2023/06/25 03:05:38;;;;;;;0.57;0.40;;;;;;;19.36;100.00;95295.09;5072003;28;20437;-62
2023/06/25 03:08:09;;;;;;;0.60;0.50;;;;;;;19.61;100.00;95288.81;5071927;28;20554;-62
2023/06/25 03:10:38;;;;;;;1.47;0.70;;;;;;;19.71;100.00;95285.75;5026714;28;1288599;-62
2023/06/25 03:13:06;;;;;;;0.87;0.60;;;;;;;19.77;100.00;95286.34;5072859;28;20668;-62
2023/06/25 03:15:35;;;;;;;0.77;0.40;;;;;;;19.54;100.00;95291.25;5072919;28;20522;-62
2023/06/25 03:18:04;;;;;;;0.60;0.50;;;;;;;19.15;100.00;95205.63;5072681;28;20473;-62
2023/06/25 03:20:32;;;;;;;0.50;0.30;;;;;;;19.77;100.00;95286.34;5072824;28;20434;-61
2023/06/25 03:23:01;;;;;;;0.50;0.30;;;;;;;19.83;100.00;95285.84;5072748;28;20429;-61
2023/06/25 03:25:31;;;;;;;4.67;0.50;;;;;;;19.59;100.00;95289.16;5072678;28;20453;-61
2023/06/25 03:27:59;;;;;;;0.77;0.77;;;;;;;19.43;100.00;95298.88;5072440;28;20464;-61
2023/06/25 03:30:27;;;;;;;0.60;0.50;;;;;;;19.10;100.00;95294.47;5072743;28;20442;-61
2023/06/25 03:32:56;;;;;;;0.80;0.70;;;;;;;18.90;100.00;95304.00;5072005;28;20448;-60
2023/06/25 03:35:24;;;;;;;0.60;0.50;;;;;;;18.82;100.00;95300.25;5072045;28;20444;-61
2023/06/25 03:37:53;;;;;;;1.10;0.90;;;;;;;18.64;100.00;95300.63;5063253;28;20439;-61
2023/06/25 03:40:21;;;;;;;0.87;0.53;;;;;;;18.96;100.00;95306.22;5071576;28;20445;-60
2023/06/25 03:42:51;;;;;;;0.60;0.60;;;;;;;19.08;100.00;95305.50;5071953;28;20536;-61
2023/06/25 03:45:19;;;;;;;2.70;1.20;;;;;;;19.23;100.00;95307.66;5071990;28;20438;-61
2023/06/25 03:47:47;;;;;;;1.37;0.30;;;;;;;19.64;100.00;95310.47;5071437;28;20547;-60
2023/06/25 03:50:16;;;;;;;0.57;0.57;;;;;;;19.54;100.00;95320.81;5071802;28;20445;-60
2023/06/25 03:52:44;;;;;;;1.60;1.50;;;;;;;19.53;100.00;95308.50;5071861;28;20438;-60
2023/06/25 03:55:12;;;;;;;2.00;0.60;;;;;;;19.25;100.00;95318.09;5072015;28;20442;-60
2023/06/25 03:57:41;;;;;;;0.50;0.30;;;;;;;19.63;100.00;95308.88;5071240;28;20446;-60
2023/06/25 04:00:12;;;;;;;1.13;0.77;;;;;;;19.33;100.00;95303.81;5071746;28;20533;-59
2023/06/25 04:02:40;;;;;;;3.03;0.93;;;;;;;19.10;100.00;95302.53;5070965;28;21019;-60
2023/06/25 04:05:09;;;;;;;0.80;0.80;;;;;;;19.60;100.00;95311.47;5071615;28;20438;-59
2023/06/25 04:07:38;;;;;;;0.63;0.63;;;;;;;19.93;100.00;95311.56;5070856;28;20433;-60
2023/06/25 04:10:07;;;;;;;0.50;0.40;;;;;;;19.76;100.00;95301.69;5071588;28;20441;-59
2023/06/25 04:12:35;;;;;;;0.50;0.40;;;;;;;19.94;100.00;95297.75;5071362;28;20437;-60
2023/06/25 04:15:04;;;;;;;0.63;0.30;;;;;;;19.82;100.00;95308.44;5070986;28;20811;-59
2023/06/25 04:17:33;;;;;;;0.93;0.40;;;;;;;20.18;100.00;95297.88;5045108;28;20612;-59
2023/06/25 04:20:02;;;;;;;0.50;0.30;;;;;;;20.17;100.00;95292.81;5070888;28;21018;-59
2023/06/25 04:22:30;;;;;;;1.20;0.80;;;;;;;19.95;100.00;95302.03;5071367;28;20457;-59
2023/06/25 04:24:58;;;;;;;1.10;0.50;;;;;;;19.93;100.00;95288.13;5071441;28;20437;-59
2023/06/25 04:27:27;;;;;;;0.93;0.77;;;;;;;19.77;100.00;95297.09;5071573;28;20429;-58
2023/06/25 04:29:55;;;;;;;8.20;0.60;;;;;;;20.24;100.00;95293.09;5071007;28;20556;-60
2023/06/25 04:32:24;;;;;;;0.50;0.30;;;;;;;20.57;100.00;95295.78;5071047;28;20434;-58
2023/06/25 04:34:53;;;;;;;0.40;0.30;;;;;;;20.48;100.00;95297.81;5070576;28;20992;-58
2023/06/25 04:37:22;;;;;;;1.00;0.57;;;;;;;20.46;100.00;95295.44;5071302;28;20472;-58
2023/06/25 04:39:50;;;;;;;0.43;0.37;;;;;;;20.71;100.00;95293.59;5070910;28;20464;-58
2023/06/25 04:42:18;;;;;;;0.40;0.30;;;;;;;20.62;100.00;95295.59;5071684;28;20888;-58
2023/06/25 04:44:47;;;;;;;0.60;0.40;;;;;;;20.46;100.00;95292.75;5070956;28;20484;-58
2023/06/25 04:47:15;;;;;;;0.50;0.50;;;;;;;20.86;100.00;95290.25;5071056;28;20445;-58
2023/06/25 04:49:43;;;;;;;1.00;0.30;;;;;;;21.13;100.00;95286.94;5070307;28;21074;-58
2023/06/25 04:52:18;;;;;;;1.37;0.73;;;;;;;21.07;100.00;95277.53;5070972;28;20499;-59
2023/06/25 04:54:47;;;;;;;0.60;0.60;;;;;;;21.14;100.00;95279.66;5070882;28;20441;-59
2023/06/25 04:57:16;;;;;;;0.40;0.30;;;;;;;21.06;100.00;95278.63;5070962;28;20445;-59
2023/06/25 04:59:44;;;;;;;1.07;0.57;;;;;;;21.23;100.00;95272.22;5071091;28;20938;-59
2023/06/25 05:02:12;;;;;;;0.60;0.40;;;;;;;21.36;100.00;95271.09;5070597;28;20476;-58
2023/06/25 05:04:41;;;;;;;0.60;0.50;;;;;;;21.52;100.00;95272.00;5070895;28;21051;-59
2023/06/25 05:07:14;;;;;;;0.60;0.57;;;;;;;21.48;100.00;95258.41;5070738;28;20454;-58
2023/06/25 05:09:42;;;;;;;0.63;0.30;;;;;;;21.50;100.00;95221.09;5070681;28;20481;-58
2023/06/25 05:12:11;;;;;;;0.50;0.50;;;;;;;21.65;100.00;95261.97;5070172;28;20472;-59
2023/06/25 05:14:40;;;;;;;1.70;1.40;;;;;;;21.50;100.00;95268.88;5070906;28;20446;-59
2023/06/25 05:17:08;;;;;;;0.50;0.40;;;;;;;21.84;100.00;95268.34;5070665;28;20434;-59
2023/06/25 05:19:37;;;;;;;0.50;0.30;;;;;;;21.55;100.00;95263.25;5071442;28;20438;-59
2023/06/25 05:22:06;;;;;;;0.70;0.60;;;;;;;21.00;100.00;95269.16;5057046;28;20941;-59
2023/06/25 05:24:35;;;;;;;0.90;0.70;;;;;;;21.03;100.00;95244.25;5070492;28;20444;-59
2023/06/25 05:27:04;;;;;;;0.80;0.60;;;;;;;21.76;100.00;95260.38;5070299;28;20434;-59
2023/06/25 05:29:32;;;;;;;0.67;0.67;;;;;;;21.99;100.00;95266.88;5058294;28;21051;-59
2023/06/25 05:32:01;;;;;;;0.93;0.80;;;;;;;21.58;100.00;95256.38;5069931;28;20437;-59
2023/06/25 05:34:29;;;;;;;0.60;0.50;;;;;;;22.18;100.00;95258.16;5070820;28;20968;-60
2023/06/25 05:36:57;;;;;;;1.20;0.83;;;;;;;22.19;100.00;95259.72;5070712;28;20469;-59
2023/06/25 05:39:28;;;;;;;1.40;0.90;;;;;;;21.94;100.00;95269.81;5070507;28;20442;-58
2023/06/25 05:41:59;;;;;;;0.77;0.57;;;;;;;22.10;100.00;95268.75;5070018;28;20964;-59
2023/06/25 05:44:27;;;;;;;1.00;0.90;;;;;;;22.48;100.00;95272.88;5070739;28;20441;-59
2023/06/25 05:46:56;;;;;;;0.50;0.40;;;;;;;22.47;100.00;95266.66;5070488;28;20946;-59
2023/06/25 05:49:24;;;;;;;0.87;0.87;;;;;;;22.00;100.00;95263.84;5070451;28;20472;-59
2023/06/25 05:51:52;;;;;;;0.90;0.90;;;;;;;22.00;100.00;95268.44;5066383;28;20953;-59
2023/06/25 05:54:21;;;;;;;1.43;1.43;;;;;;;22.33;100.00;95260.91;5070505;28;20445;-59
2023/06/25 05:56:49;;;;;;;0.53;0.50;;;;;;;22.33;100.00;95260.91;5070945;28;20772;-58
2023/06/25 05:59:19;;;;;;;2.30;2.10;;;;;;;22.48;100.00;95245.84;5070424;28;20441;-59
2023/06/25 06:01:47;;;;;;;3.90;0.90;;;;;;;23.05;100.00;95258.91;5070944;28;20469;-60
2023/06/25 06:04:15;;;;;;;1.10;1.00;;;;;;;22.69;100.00;95266.13;5072300;28;20507;-60
2023/06/25 06:06:47;;;;;;;2.03;1.87;;;;;;;22.25;100.00;95261.81;5074385;28;20441;-58
2023/06/25 06:09:16;;;;;;;1.03;0.87;;;;;;;22.80;100.00;95261.00;5073725;28;20469;-58
2023/06/25 06:11:44;;;;;;;1.80;1.70;;;;;;;22.06;100.00;95267.09;5073843;28;21007;-58
2023/06/25 06:14:13;;;;;;;1.20;1.20;;;;;;;22.26;100.00;95252.59;5048391;28;20828;-59
2023/06/25 06:16:42;;;;;;;1.43;0.77;;;;;;;22.83;100.00;95243.31;5073838;28;20999;-59
2023/06/25 06:19:11;;;;;;;0.63;0.63;;;;;;;23.74;100.00;95250.09;5073783;28;20469;-59
2023/06/25 06:21:39;;;;;;;1.00;0.97;;;;;;;23.49;100.00;95256.88;5073659;28;20437;-59
2023/06/25 06:24:08;;;;;;;0.97;0.87;;;;;;;23.56;100.00;95247.00;5073084;28;20521;-59
2023/06/25 06:26:36;;;;;;;2.00;1.50;;;;;;;23.72;100.00;95187.44;5073419;28;20497;-59
2023/06/25 06:29:05;;;;;;;1.43;0.97;;;;;;;24.57;100.00;95252.19;5072741;28;20548;-60
2023/06/25 06:31:34;;;;;;;1.00;0.87;;;;;;;24.72;100.00;95243.16;5068907;28;20445;-60
2023/06/25 06:34:04;;;;;;;1.00;0.70;;;;;;;24.52;100.00;95250.56;5073709;28;20436;-61
2023/06/25 06:36:32;;;;;;;0.90;0.90;;;;;;;24.44;100.00;95243.44;5071972;28;20437;-61
2023/06/25 06:39:00;;;;;;;0.50;0.50;;;;;;;25.22;100.00;95232.03;5072064;28;20518;-61
2023/06/25 06:41:28;;;;;;;0.83;0.83;;;;;;;25.51;98.42;95225.13;5070846;28;20832;-61
2023/06/25 06:44:11;;;;;;;0.60;0.60;;;;;;;25.65;94.99;95222.59;5070929;28;20468;-62
2023/06/25 06:46:39;;;;;;;0.80;0.70;;;;;;;25.98;96.03;95227.34;5044782;28;20533;-62
2023/06/25 06:49:09;;;;;;;0.70;0.57;;;;;;;26.04;96.37;95225.84;5070905;28;20503;-63
2023/06/25 06:51:39;;;;;;;1.53;0.80;;;;;;;26.02;93.98;95176.53;5071087;28;20438;-61
2023/06/25 06:54:08;;;;;;;0.70;0.70;;;;;;;26.63;89.25;95205.16;5071758;28;20468;-61
2023/06/25 06:56:37;;;;;;;2.40;1.80;;;;;;;25.81;90.82;95209.66;5072738;28;20438;-62
2023/06/25 06:59:05;;;;;;;0.70;0.70;;;;;;;26.29;91.37;95207.94;5072200;28;20961;-62
2023/06/25 07:01:34;;;;;;;0.60;0.50;;;;;;;26.66;87.92;95215.31;5072530;28;20521;-61
2023/06/25 07:04:02;;;;;;;1.60;0.50;;;;;;;27.36;85.25;95194.16;5072418;28;20520;-61
2023/06/25 07:06:32;;;;;;;0.83;0.80;;;;;;;27.36;81.13;95204.25;5082761;28;20454;-62
2023/06/25 07:09:01;;;;;;;0.67;0.63;;;;;;;27.25;82.10;95190.56;5072745;28;20514;-63
2023/06/25 07:11:29;;;;;;;0.57;0.53;;;;;;;27.73;80.14;95191.28;5072069;28;20469;-63
2023/06/25 07:13:58;;;;;;;1.03;1.03;;;;;;;27.31;80.03;95191.78;5072067;28;20516;-63
2023/06/25 07:16:26;;;;;;;2.00;1.13;;;;;;;27.29;80.31;95185.94;5071236;28;20434;-63
2023/06/25 07:18:54;;;;;;;4.00;1.17;;;;;;;26.60;83.35;95187.66;5072142;28;20429;-64
2023/06/25 07:21:22;;;;;;;0.93;0.93;;;;;;;26.90;85.08;95182.91;5072527;28;20511;-63
2023/06/25 07:23:52;;;;;;;7.60;0.93;;;;;;;27.37;83.19;95170.44;5071357;28;20477;-62
2023/06/25 07:26:21;;;;;;;1.27;1.17;;;;;;;28.05;77.68;95172.38;5071677;28;20441;-62
2023/06/25 07:28:50;;;;;;;1.67;0.80;;;;;;;27.99;79.47;95171.16;5071814;28;20437;-63
2023/06/25 07:31:18;;;;;;;0.70;0.63;;;;;;;28.07;77.20;95167.34;5071522;28;21124;-63
2023/06/25 07:33:46;;;;;;;1.17;0.60;;;;;;;28.83;72.59;95157.78;5045837;28;20438;-63
2023/06/25 07:36:14;;;;;;;2.00;1.33;;;;;;;27.37;76.40;95163.06;5071316;28;20961;-64
2023/06/25 07:38:43;;;;;;;0.70;0.70;;;;;;;27.82;77.13;95160.97;5071647;28;20891;-63
2023/06/25 07:41:13;;;;;;;0.93;0.90;;;;;;;28.33;77.45;95156.13;5071666;28;20488;-63
2023/06/25 07:43:41;;;;;;;0.83;0.83;;;;;;;27.29;78.82;95160.66;5071574;28;20445;-64
2023/06/25 07:46:09;;;;;;;0.70;0.53;;;;;;;27.98;80.40;95159.47;5071355;28;20873;-64
2023/06/25 07:48:38;;;;;;;0.80;0.77;;;;;;;28.05;77.30;95166.94;5071432;28;20473;-65
2023/06/25 07:51:06;;;;;;;2.60;0.73;;;;;;;28.79;75.86;95156.97;5070880;28;20486;-63
2023/06/25 07:53:35;;;;;;;0.40;0.30;;;;;;;29.06;72.86;95159.31;5071825;28;20430;-62
2023/06/25 07:56:03;;;;;;;2.80;0.53;;;;;;;30.08;69.91;95159.13;5058195;28;20853;-61
2023/06/25 07:58:34;;;;;;;0.77;0.77;;;;;;;30.48;67.81;95160.50;5071466;28;20519;-59
2023/06/25 08:01:02;;;;;;;0.93;0.90;;;;;;;29.79;67.37;95150.25;5071017;28;20445;-60
2023/06/25 08:03:30;;;;;;;1.70;1.57;;;;;;;29.51;67.64;95137.44;5070921;28;20536;-61
2023/06/25 08:05:59;;;;;;;0.53;0.53;;;;;;;29.92;65.54;95131.47;5071132;28;20451;-60
2023/06/25 08:08:27;;;;;;;1.20;1.10;;;;;;;30.21;64.30;95132.13;5070584;28;20436;-60
2023/06/25 08:10:56;;;;;;;0.90;0.90;;;;;;;30.05;63.35;95130.63;5070537;28;20484;-61
2023/06/25 08:13:24;;;;;;;0.63;0.60;;;;;;;30.68;63.58;95090.41;5070811;28;20513;-61
2023/06/25 08:15:54;;;;;;;1.10;1.10;;;;;;;31.27;62.34;95130.16;5070772;28;20868;-61
2023/06/25 08:18:23;;;;;;;2.17;2.03;;;;;;;30.39;61.94;95127.34;5070673;28;20582;-61
2023/06/25 08:20:51;;;;;;;0.60;0.60;;;;;;;30.50;63.32;95114.38;5070940;28;20429;-61
2023/06/25 08:23:19;;;;;;;0.70;0.70;;;;;;;31.00;63.47;95121.03;5070646;28;20434;-61
2023/06/25 08:25:47;;;;;;;0.87;0.50;;;;;;;30.64;62.11;95117.00;5070607;28;20445;-61
2023/06/25 08:28:16;;;;;;;0.87;0.87;;;;;;;31.04;64.66;95116.34;5070308;28;20439;-61
2023/06/25 08:30:44;;;;;;;0.53;0.40;;;;;;;31.73;60.13;95112.47;5070696;28;20504;-60
2023/06/25 08:33:14;;;;;;;1.60;1.50;;;;;;;31.34;59.68;95113.69;5070387;28;20436;-60
2023/06/25 08:35:42;;;;;;;8.70;2.33;;;;;;;30.93;59.74;95107.44;5070560;28;20433;-60
2023/06/25 08:38:12;;;;;;;0.73;0.73;;;;;;;31.35;56.87;95112.47;5070547;28;20507;-61
2023/06/25 08:40:41;;;;;;;1.40;0.90;;;;;;;31.14;58.65;95107.25;5070421;28;20474;-61
2023/06/25 08:43:10;;;;;;;1.23;1.23;;;;;;;31.30;58.84;95110.19;5070433;28;20498;-60
2023/06/25 08:45:38;;;;;;;1.40;1.30;;;;;;;31.99;58.66;95101.63;5070272;28;20437;-60
2023/06/25 08:48:12;;;;;;;0.70;0.70;;;;;;;31.85;58.56;95098.25;5069822;28;20945;-60
2023/06/25 08:50:44;;;;;;;0.40;0.37;;;;;;;32.16;57.73;95090.81;5070693;28;21042;-60
2023/06/25 08:53:12;;;;;;;0.87;0.87;;;;;;;32.64;58.08;95097.56;5044979;28;20429;-61
2023/06/25 08:55:42;;;;;;;0.70;0.70;;;;;;;32.23;57.29;95088.75;5070181;28;20434;-60
2023/06/25 08:58:11;;;;;;;0.83;0.83;;;;;;;31.86;56.84;95086.88;5070498;28;20444;-60
2023/06/25 09:00:39;;;;;;;2.33;2.20;;;;;;;31.93;58.90;95081.28;5070166;28;20441;-61
2023/06/25 09:03:07;;;;;;;0.47;0.47;;;;;;;32.51;56.38;95077.38;5070326;28;20794;-60
2023/06/25 09:05:35;;;;;;;3.87;1.60;;;;;;;32.03;55.10;95071.41;5070265;28;20464;-61
2023/06/25 09:08:14;;;;;;;0.70;0.70;;;;;;;32.75;55.78;95069.19;5070232;28;20495;-61
2023/06/25 09:10:42;;;;;;;1.23;1.20;;;;;;;32.68;54.29;95067.34;5070216;28;20538;-61
2023/06/25 09:13:10;;;;;;;0.90;0.90;;;;;;;32.78;54.48;95076.59;5070581;28;20469;-61
2023/06/25 09:15:43;;;;;;;1.03;1.03;;;;;;;33.24;53.06;95069.09;5070506;28;20475;-61
2023/06/25 09:18:11;;;;;;;0.40;0.40;;;;;;;32.75;52.95;95072.72;5070080;28;20433;-61
2023/06/25 09:20:40;;;;;;;2.07;0.70;;;;;;;31.80;55.18;95076.78;5065490;28;20901;-61
2023/06/25 09:23:10;;;;;;;0.73;0.73;;;;;;;31.37;55.42;95079.22;5065270;28;20498;-62
2023/06/25 09:25:38;;;;;;;0.70;0.60;;;;;;;30.88;56.19;95091.41;5070311;28;20472;-62
2023/06/25 09:28:10;;;;;;;2.37;0.63;;;;;;;30.53;58.23;95084.28;5069735;28;20752;-60
2023/06/25 09:30:40;;;;;;;0.37;0.33;;;;;;;30.46;60.92;95084.31;5070020;28;20496;-61
2023/06/25 09:33:08;;;;;;;0.40;0.40;;;;;;;30.38;61.42;95090.25;5069574;28;20471;-62
2023/06/25 09:35:37;;;;;;;1.03;0.93;;;;;;;29.53;62.99;95096.06;5069502;28;20819;-62
2023/06/25 09:38:06;;;;;;;0.50;0.50;;;;;;;29.29;65.11;95095.00;5070161;28;20794;-65
2023/06/25 09:40:35;;;;;;;0.80;0.80;;;;;;;28.64;65.89;95084.50;5074141;28;20437;-63
2023/06/25 09:43:07;;;;;;;1.10;1.10;;;;;;;28.64;63.23;95079.03;5073669;28;20435;-64
2023/06/25 09:45:37;;;;;;;0.80;0.63;;;;;;;28.52;64.05;95075.91;5074508;28;20486;-65
2023/06/25 09:48:10;;;;;;;3.60;0.60;;;;;;;28.60;63.71;94999.16;5073956;28;20495;-65
2023/06/25 09:50:43;;;;;;;0.40;0.40;;;;;;;29.42;63.39;95074.25;5073581;28;20441;-65
2023/06/25 09:53:17;;;;;;;0.60;0.57;;;;;;;29.29;64.34;95064.97;5073990;28;20441;-65
2023/06/25 09:55:47;;;;;;;0.50;0.40;;;;;;;29.27;63.81;95055.59;5073245;28;20461;-65
2023/06/25 09:58:18;;;;;;;0.57;0.57;;;;;;;28.82;66.49;95063.44;5073894;28;20468;-66
2023/06/25 10:00:47;;;;;;;1.30;0.70;;;;;;;28.93;68.61;95057.97;5073391;28;20445;-66
2023/06/25 10:03:16;;;;;;;0.87;0.63;;;;;;;28.20;71.91;95048.63;5074081;28;20650;-66
2023/06/25 10:05:46;;;;;;;1.13;0.50;;;;;;;28.11;77.39;95042.75;5073470;28;20461;-67
2023/06/25 10:08:15;;;;;;;0.77;0.40;;;;;;;28.59;73.28;95029.56;5073993;28;20460;-67
2023/06/25 10:10:44;;;;;;;0.87;0.87;;;;;;;28.33;77.76;95041.63;5073050;28;20480;-67
2023/06/25 10:13:14;;;;;;;1.00;0.63;;;;;;;28.50;80.12;95046.31;5073917;28;20880;-67
2023/06/25 10:15:42;;;;;;;1.10;1.10;;;;;;;27.70;84.14;95056.66;5072962;28;20469;-67
2023/06/25 10:18:10;;;;;;;1.10;1.10;;;;;;;27.37;75.73;95061.56;5073423;28;20895;-67
2023/06/25 10:20:45;;;;;;;0.83;0.83;;;;;;;27.63;78.00;95064.00;5072971;28;20430;-67
2023/06/25 10:23:14;;;;;;;0.40;0.40;;;;;;;28.18;77.01;95049.00;5072932;28;20482;-64
2023/06/25 10:25:54;;;;;;;0.60;0.60;;;;;;;27.64;72.26;95055.47;5047081;28;20602;-66
2023/06/25 10:28:30;;;;;;;0.70;0.70;;;;;;;28.01;71.92;95046.25;5072630;28;20463;-66
2023/06/25 10:31:12;;;;;;;0.40;0.33;;;;;;;28.08;67.71;95038.09;5072865;28;20433;-66
2023/06/25 10:33:42;;;;;;;6.80;0.50;;;;;;;27.83;68.68;95031.81;5073239;28;20440;-65
2023/06/25 10:36:12;;;;;;;1.60;0.90;;;;;;;27.61;67.44;95015.41;5073189;28;20442;-66
2023/06/25 10:38:41;;;;;;;0.40;0.40;;;;;;;27.38;69.79;95028.50;5073146;28;20599;-65
2023/06/25 10:41:09;;;;;;;2.90;1.70;;;;;;;27.18;69.94;95012.88;5072623;28;20496;-64
2023/06/25 10:43:38;;;;;;;2.43;0.70;;;;;;;26.93;71.02;95020.91;5072851;28;20437;-65
2023/06/25 10:46:07;;;;;;;0.70;0.60;;;;;;;27.19;75.01;95020.66;5072341;28;20969;-64
2023/06/25 10:48:35;;;;;;;0.90;0.73;;;;;;;27.28;73.20;95015.63;5072882;28;20516;-65
2023/06/25 10:51:03;;;;;;;0.40;0.30;;;;;;;27.81;75.67;95029.44;5072500;28;20502;-65
2023/06/25 10:53:32;;;;;;;0.57;0.50;;;;;;;28.19;75.35;95033.44;5073013;28;20437;-65
2023/06/25 10:56:00;;;;;;;1.43;1.33;;;;;;;27.90;78.14;95034.53;5072368;28;20445;-65
2023/06/25 10:58:28;;;;;;;0.53;0.43;;;;;;;28.45;76.55;95035.78;5072774;28;20430;-65
2023/06/25 11:00:59;;;;;;;0.63;0.50;;;;;;;28.79;77.08;95031.50;5072627;28;20450;-65
2023/06/25 11:03:27;;;;;;;0.93;0.93;;;;;;;28.94;72.92;95024.84;5072781;28;20448;-65
2023/06/25 11:05:58;;;;;;;0.73;0.73;;;;;;;28.63;72.18;95025.69;5072545;28;20437;-66
2023/06/25 11:08:26;;;;;;;0.70;0.70;;;;;;;29.26;73.36;95032.19;5072607;28;20432;-65
2023/06/25 11:10:55;;;;;;;0.90;0.60;;;;;;;28.98;71.23;95021.31;5072285;28;20507;-66
2023/06/25 11:13:23;;;;;;;1.43;1.33;;;;;;;29.43;71.91;95020.41;5072471;28;20560;-65
2023/06/25 11:15:51;;;;;;;0.50;0.50;;;;;;;29.57;67.34;95025.84;5072168;28;20917;-65
2023/06/25 11:18:23;;;;;;;3.20;0.50;;;;;;;29.97;65.54;95025.25;5072504;28;20441;-63
2023/06/25 11:20:53;;;;;;;2.47;1.10;;;;;;;29.90;63.58;95022.56;5072128;28;21017;-64
2023/06/25 11:23:22;;;;;;;1.10;0.93;;;;;;;30.67;64.74;95026.69;5072109;28;20945;-63
2023/06/25 11:25:50;;;;;;;1.67;1.57;;;;;;;30.92;63.16;95021.00;5072512;28;20433;-63
2023/06/25 11:28:18;;;;;;;1.17;1.07;;;;;;;31.28;63.34;95018.66;5071723;28;20428;-63
2023/06/25 11:30:46;;;;;;;1.87;1.77;;;;;;;31.49;58.70;95015.72;5072238;28;20494;-62
2023/06/25 11:33:16;;;;;;;0.93;0.87;;;;;;;31.56;58.56;95007.41;5071372;28;20485;-62
2023/06/25 11:35:50;;;;;;;0.60;0.40;;;;;;;31.80;57.12;95011.00;5071758;28;20444;-64
2023/06/25 11:38:26;;;;;;;0.63;0.63;;;;;;;31.75;59.84;95012.22;5073269;28;21014;-63